Time;durP1;ratioP1;P1;durP2;ratioP2;P2;SDS_P1;SDS_P2;PMS_P1;PMS_P2;Temp;Humidity;BMP_temperature;BMP_pressure;BME280_temperature;BME280_humidity;BME280_pressure;Samples;Min_cycle;Max_cycle;Signal;HPM_P1;HPM_P2
2022/12/21 00:01:47;;;;;;;48.00;40.10;;;10.00;99.90;;;;;;4977457;28;20462;-78
2022/12/21 00:04:16;;;;;;;49.23;40.80;;;10.00;99.90;;;;;;4977168;28;20971;-78
2022/12/21 00:06:44;;;;;;;54.23;42.03;;;10.00;99.90;;;;;;4977810;28;20472;-78
2022/12/21 00:09:15;;;;;;;51.10;42.20;;;10.00;99.90;;;;;;4992055;28;20463;-78
2022/12/21 00:11:44;;;;;;;50.17;42.17;;;10.00;99.90;;;;;;4995324;28;20441;-78
2022/12/21 00:14:12;;;;;;;49.97;41.77;;;10.00;99.90;;;;;;4995037;28;21069;-78
2022/12/21 00:16:41;;;;;;;53.00;43.87;;;10.00;99.90;;;;;;4994715;28;20958;-78
2022/12/21 00:19:13;;;;;;;47.47;40.10;;;10.00;99.90;;;;;;4994890;28;20449;-77
2022/12/21 00:21:41;;;;;;;49.80;42.57;;;10.00;99.90;;;;;;4997310;28;20465;-77
2022/12/21 00:24:09;;;;;;;52.80;42.80;;;10.00;99.90;;;;;;4999045;28;20448;-78
2022/12/21 00:26:39;;;;;;;46.67;41.43;;;10.00;99.90;;;;;;4997399;28;20460;-78
2022/12/21 00:29:08;;;;;;;50.70;42.10;;;9.90;99.90;;;;;;4999244;28;20439;-78
2022/12/21 00:31:39;;;;;;;45.93;38.90;;;10.00;99.90;;;;;;4998390;28;20803;-78
2022/12/21 00:34:07;;;;;;;45.60;38.07;;;9.90;99.90;;;;;;4999898;28;20431;-78
2022/12/21 00:36:40;;;;;;;48.90;38.60;;;9.90;99.90;;;;;;4998079;28;20515;-78
2022/12/21 00:39:12;;;;;;;46.10;37.50;;;9.90;99.90;;;;;;4998139;28;20444;-78
2022/12/21 00:41:45;;;;;;;48.57;39.73;;;9.90;99.90;;;;;;4997473;28;20515;-78
2022/12/21 00:44:14;;;;;;;46.60;37.70;;;9.90;99.90;;;;;;4997733;28;21036;-78
2022/12/21 00:46:42;;;;;;;46.37;37.60;;;9.90;99.90;;;;;;4997871;28;20461;-78
2022/12/21 00:49:12;;;;;;;44.00;38.20;;;9.90;99.90;;;;;;4998694;28;20443;-78
2022/12/21 00:51:40;;;;;;;39.63;35.33;;;9.90;99.90;;;;;;4997547;28;20451;-77
2022/12/21 00:54:09;;;;;;;44.53;36.60;;;9.90;99.90;;;;;;4998519;28;20448;-77
2022/12/21 00:56:37;;;;;;;41.63;34.87;;;9.90;99.90;;;;;;4996903;28;20511;-78
2022/12/21 00:59:07;;;;;;;38.87;34.20;;;9.90;99.90;;;;;;4993923;28;20958;-77
2022/12/21 01:01:38;;;;;;;43.90;35.53;;;9.90;99.90;;;;;;4997324;28;20565;-78
2022/12/21 01:04:06;;;;;;;40.23;33.87;;;9.90;99.90;;;;;;4997514;28;20441;-77
2022/12/21 01:06:38;;;;;;;39.33;35.03;;;9.80;99.90;;;;;;4997804;28;20445;-78
2022/12/21 01:09:07;;;;;;;48.53;36.50;;;9.90;99.90;;;;;;4997123;28;20503;-78
2022/12/21 01:11:37;;;;;;;43.70;35.07;;;9.80;99.90;;;;;;4998060;28;20437;-78
2022/12/21 01:14:07;;;;;;;42.97;34.30;;;9.80;99.90;;;;;;4998881;28;20445;-78
2022/12/21 01:16:35;;;;;;;48.77;34.70;;;9.80;99.90;;;;;;4998423;28;20461;-78
2022/12/21 01:19:05;;;;;;;42.30;36.00;;;9.90;99.90;;;;;;4998012;28;20551;-78
2022/12/21 01:21:36;;;;;;;37.53;33.43;;;9.80;99.90;;;;;;4996553;28;20475;-78
2022/12/21 01:24:06;;;;;;;37.90;32.97;;;9.80;99.90;;;;;;4998360;28;20445;-78
2022/12/21 01:26:35;;;;;;;37.87;31.90;;;9.80;99.90;;;;;;4998753;28;20453;-78
2022/12/21 01:29:03;;;;;;;43.03;34.13;;;9.80;99.90;;;;;;4998254;28;20484;-78
2022/12/21 01:31:35;;;;;;;38.17;32.10;;;9.80;99.90;;;;;;4997703;28;20502;-78
2022/12/21 01:34:04;;;;;;;40.07;33.00;;;9.80;99.90;;;;;;4998037;28;20445;-78
2022/12/21 01:36:32;;;;;;;39.30;30.33;;;9.80;99.90;;;;;;4998069;28;20492;-78
2022/12/21 01:39:04;;;;;;;37.90;32.50;;;9.70;99.90;;;;;;4999648;28;20421;-78
2022/12/21 01:41:32;;;;;;;40.33;32.13;;;9.70;99.90;;;;;;4997844;28;20472;-78
2022/12/21 01:44:02;;;;;;;34.10;29.33;;;9.70;99.90;;;;;;4998631;28;20508;-78
2022/12/21 01:46:37;;;;;;;37.23;29.07;;;9.70;99.90;;;;;;4997465;28;20479;-78
2022/12/21 01:49:11;;;;;;;38.27;29.20;;;9.70;99.90;;;;;;4994522;28;20506;-79
2022/12/21 01:51:44;;;;;;;34.87;27.93;;;9.70;99.90;;;;;;4997377;28;20452;-78
2022/12/21 01:54:15;;;;;;;32.67;26.70;;;9.60;99.90;;;;;;4997277;28;20444;-78
2022/12/21 01:56:48;;;;;;;34.90;27.77;;;9.70;99.90;;;;;;4997509;28;20453;-78
2022/12/21 01:59:22;;;;;;;33.07;27.43;;;9.70;99.90;;;;;;4996571;28;20818;-78
2022/12/21 02:01:52;;;;;;;36.70;27.10;;;9.70;99.90;;;;;;4996535;28;20559;-79
2022/12/21 02:04:22;;;;;;;35.40;27.43;;;9.70;99.90;;;;;;4999042;28;20456;-78
2022/12/21 02:06:55;;;;;;;38.47;29.07;;;9.60;99.90;;;;;;4997235;28;20487;-79
2022/12/21 02:09:25;;;;;;;36.47;25.63;;;9.60;99.90;;;;;;4997111;28;20464;-79
2022/12/21 02:11:54;;;;;;;40.77;26.40;;;9.60;99.90;;;;;;4996433;28;20822;-78
2022/12/21 02:14:23;;;;;;;39.80;27.47;;;9.60;99.90;;;;;;4996584;28;20473;-78
2022/12/21 02:17:04;;;;;;;39.07;27.00;;;9.60;99.90;;;;;;4996661;28;20535;-79
2022/12/21 02:20:06;;;;;;;45.47;28.27;;;9.60;99.90;;;;;;4995864;28;20452;-79
2022/12/21 02:22:56;;;;;;;39.30;28.13;;;9.60;99.90;;;;;;4996222;28;20526;-79
2022/12/21 02:25:53;;;;;;;45.50;27.83;;;9.50;99.90;;;;;;4997347;28;20572;-78
2022/12/21 02:28:51;;;;;;;46.03;30.27;;;9.50;99.90;;;;;;4996010;28;20453;-78
2022/12/21 02:31:30;;;;;;;43.80;28.27;;;9.50;99.90;;;;;;4996120;28;20448;-78
2022/12/21 02:34:09;;;;;;;44.30;29.53;;;9.50;99.90;;;;;;4996232;28;20444;-78
2022/12/21 02:36:44;;;;;;;44.93;28.00;;;9.50;99.90;;;;;;4996952;28;20510;-78
2022/12/21 02:39:22;;;;;;;44.67;27.17;;;9.50;99.90;;;;;;4994340;28;20463;-79
2022/12/21 02:41:58;;;;;;;50.17;30.13;;;9.50;99.90;;;;;;4995630;28;20491;-78
2022/12/21 02:44:37;;;;;;;48.17;28.50;;;9.50;99.90;;;;;;4995100;28;20844;-78
2022/12/21 02:47:12;;;;;;;43.20;26.43;;;9.40;99.90;;;;;;4997313;28;20843;-79
2022/12/21 02:49:46;;;;;;;48.23;29.60;;;9.40;99.90;;;;;;4995113;28;20444;-80
2022/12/21 02:52:22;;;;;;;46.80;27.90;;;9.40;99.90;;;;;;4994920;28;20448;-78
2022/12/21 02:54:57;;;;;;;44.50;29.93;;;9.40;99.90;;;;;;4995541;28;20555;-79
2022/12/21 02:57:32;;;;;;;46.43;29.40;;;9.40;99.90;;;;;;4995534;28;20455;-79
2022/12/21 03:00:03;;;;;;;44.90;27.10;;;9.40;99.90;;;;;;4994146;28;20467;-77
2022/12/21 03:06:04;;;;;;;42.63;27.03;;;9.30;99.90;;;;;;4994617;28;20511;-77
2022/12/21 03:08:46;;;;;;;49.17;28.80;;;9.30;99.90;;;;;;4986533;28;20452;-79
2022/12/21 03:11:15;;;;;;;43.60;27.97;;;9.30;99.90;;;;;;4996152;28;20441;-77
2022/12/21 03:13:53;;;;;;;40.50;25.80;;;9.20;99.90;;;;;;4996282;28;20467;-77
2022/12/21 03:16:26;;;;;;;41.90;25.53;;;9.20;99.90;;;;;;4995316;28;20447;-78
2022/12/21 03:19:04;;;;;;;43.73;26.60;;;9.20;99.90;;;;;;4995910;28;20449;-78
2022/12/21 03:21:38;;;;;;;40.33;24.87;;;9.10;99.90;;;;;;4993530;28;20961;-78
2022/12/21 03:24:13;;;;;;;42.20;25.40;;;9.10;99.90;;;;;;4993370;28;20449;-77
2022/12/21 03:26:47;;;;;;;45.47;26.07;;;9.10;99.90;;;;;;4995281;28;20433;-76
2022/12/21 03:29:18;;;;;;;40.73;26.13;;;9.00;99.90;;;;;;4993043;28;20461;-77
2022/12/21 03:31:51;;;;;;;37.00;24.00;;;9.00;99.90;;;;;;4993961;28;20520;-77
2022/12/21 03:34:25;;;;;;;40.10;25.40;;;8.90;99.90;;;;;;4993483;28;20468;-76
2022/12/21 03:36:57;;;;;;;27.23;17.17;;;8.90;99.90;;;;;;4994635;28;20868;-79
2022/12/21 03:39:28;;;;;;;41.07;24.87;;;8.80;99.90;;;;;;4994934;28;20441;-79
2022/12/21 03:42:00;;;;;;;39.20;25.37;;;8.80;99.90;;;;;;4995103;28;20468;-79
2022/12/21 03:44:35;;;;;;;36.77;22.40;;;8.70;99.90;;;;;;4994996;28;20483;-78
2022/12/21 03:47:07;;;;;;;39.67;25.27;;;8.70;99.90;;;;;;4995447;28;20968;-78
2022/12/21 03:49:41;;;;;;;39.33;24.27;;;8.70;99.90;;;;;;4994807;28;20549;-79
2022/12/21 03:52:14;;;;;;;58.63;26.57;;;8.60;99.90;;;;;;4995333;28;20477;-79
2022/12/21 03:54:45;;;;;;;54.00;30.50;;;8.60;99.90;;;;;;4995654;28;20475;-79
2022/12/21 03:57:16;;;;;;;43.90;29.10;;;8.50;99.90;;;;;;4999711;28;20508;-79
2022/12/21 03:59:47;;;;;;;55.07;30.50;;;8.50;99.90;;;;;;4998569;28;20450;-79
2022/12/21 04:02:22;;;;;;;50.20;30.00;;;8.50;99.90;;;;;;4997874;28;20551;-80
2022/12/21 04:04:57;;;;;;;53.43;29.97;;;8.50;99.90;;;;;;4998485;28;20479;-79
2022/12/21 04:07:27;;;;;;;61.50;29.47;;;8.50;99.90;;;;;;4999940;28;20782;-77
2022/12/21 04:09:58;;;;;;;53.03;28.73;;;8.50;99.90;;;;;;4998722;28;20558;-78
2022/12/21 04:12:38;;;;;;;47.90;26.87;;;8.40;99.90;;;;;;5000090;28;20860;-77
2022/12/21 04:15:09;;;;;;;46.63;26.53;;;8.40;99.90;;;;;;4999848;28;20459;-78
2022/12/21 04:17:38;;;;;;;63.40;27.53;;;8.40;99.90;;;;;;4995372;28;20468;-78
2022/12/21 04:20:10;;;;;;;52.50;27.47;;;8.40;99.90;;;;;;4997935;28;20459;-77
2022/12/21 04:28:16;;;;;;;53.70;29.40;;;8.40;99.90;;;;;;4998333;28;20453;-79
2022/12/21 04:31:04;;;;;;;66.63;30.83;;;8.40;99.90;;;;;;4997922;28;20531;-78
2022/12/21 04:33:32;;;;;;;53.57;28.90;;;8.40;99.90;;;;;;4999405;28;20463;-78
2022/12/21 04:38:47;;;;;;;54.77;26.40;;;8.30;99.90;;;;;;4999063;28;20463;-77
2022/12/21 04:41:15;;;;;;;48.23;26.63;;;8.30;99.90;;;;;;4997841;28;20503;-77
2022/12/21 04:43:44;;;;;;;62.40;29.07;;;8.30;99.90;;;;;;4999181;28;20519;-78
2022/12/21 04:46:14;;;;;;;57.90;28.00;;;8.30;99.90;;;;;;4997601;28;20465;-78
2022/12/21 04:48:45;;;;;;;34.07;21.17;;;8.30;99.90;;;;;;4997599;28;20457;-77
2022/12/21 04:51:17;;;;;;;38.67;25.60;;;8.30;99.90;;;;;;4997257;28;20547;-78
2022/12/21 04:53:45;;;;;;;49.77;26.17;;;8.30;99.90;;;;;;4998652;28;20479;-78
2022/12/21 04:56:14;;;;;;;55.00;29.53;;;8.30;99.90;;;;;;4997891;28;20456;-77
2022/12/21 04:58:42;;;;;;;51.10;29.60;;;8.30;99.90;;;;;;4997040;28;20974;-78
2022/12/21 05:01:12;;;;;;;39.30;24.93;;;8.30;99.90;;;;;;4997834;28;20428;-79
2022/12/21 05:03:40;;;;;;;34.60;22.67;;;8.30;99.90;;;;;;4995926;28;20472;-79
2022/12/21 05:06:10;;;;;;;45.53;27.10;;;8.20;99.90;;;;;;4995657;28;20576;-79
2022/12/21 05:08:40;;;;;;;46.90;26.03;;;8.20;99.90;;;;;;4997135;28;20522;-79
2022/12/21 05:11:10;;;;;;;45.60;26.57;;;8.20;99.90;;;;;;4997979;28;20456;-79
2022/12/21 05:13:38;;;;;;;46.87;27.10;;;8.20;99.90;;;;;;5000051;28;20422;-79
2022/12/21 05:16:09;;;;;;;68.80;31.30;;;8.20;99.90;;;;;;4998997;28;20455;-77
2022/12/21 05:18:37;;;;;;;49.70;29.70;;;8.20;99.90;;;;;;4998280;28;20458;-79
2022/12/21 05:21:06;;;;;;;46.37;27.23;;;8.20;99.90;;;;;;4997613;28;20828;-79
2022/12/21 05:23:34;;;;;;;55.07;29.40;;;8.10;99.90;;;;;;4999123;28;20476;-78
2022/12/21 05:26:05;;;;;;;56.30;29.67;;;8.20;99.90;;;;;;4997657;28;21016;-79
2022/12/21 05:28:42;;;;;;;45.80;27.73;;;8.10;99.90;;;;;;4999142;28;20429;-79
2022/12/21 05:31:11;;;;;;;53.20;29.70;;;8.10;99.90;;;;;;4998097;28;20456;-79
2022/12/21 05:33:39;;;;;;;69.57;34.53;;;8.10;99.90;;;;;;4997169;28;20504;-78
2022/12/21 05:36:09;;;;;;;69.50;33.40;;;8.10;99.90;;;;;;4996728;28;20930;-79
2022/12/21 05:38:38;;;;;;;58.60;32.90;;;8.10;99.90;;;;;;4996251;28;20455;-79
2022/12/21 05:41:07;;;;;;;57.27;32.13;;;8.10;99.90;;;;;;4995870;28;20957;-78
2022/12/21 05:43:39;;;;;;;85.43;33.77;;;8.10;99.90;;;;;;4998572;28;20954;-78
2022/12/21 05:46:09;;;;;;;52.13;30.50;;;8.10;99.90;;;;;;4996730;28;20486;-79
2022/12/21 05:48:38;;;;;;;166.00;36.77;;;8.10;99.90;;;;;;4998628;28;20429;-78
2022/12/21 05:51:07;;;;;;;323.60;51.30;;;8.10;99.90;;;;;;4998232;28;20443;-79
2022/12/21 05:53:36;;;;;;;75.50;35.97;;;8.00;99.90;;;;;;4996211;28;20463;-79
2022/12/21 05:56:05;;;;;;;202.30;43.93;;;8.00;99.90;;;;;;4996058;28;20478;-76
2022/12/21 05:58:35;;;;;;;109.33;37.47;;;8.00;99.90;;;;;;4995176;28;20456;-79
2022/12/21 06:01:07;;;;;;;64.17;34.87;;;8.00;99.90;;;;;;4995872;28;20455;-79
2022/12/21 06:03:38;;;;;;;68.17;34.37;;;8.00;99.90;;;;;;4996976;28;20575;-79
2022/12/21 06:06:09;;;;;;;63.97;33.53;;;8.00;99.90;;;;;;4997157;28;20460;-79
2022/12/21 06:08:37;;;;;;;55.20;31.10;;;8.00;99.90;;;;;;4997656;28;20450;-79
2022/12/21 06:11:07;;;;;;;69.40;33.07;;;8.00;99.90;;;;;;4997385;28;20552;-79
2022/12/21 06:13:37;;;;;;;69.53;31.60;;;8.00;99.90;;;;;;4996789;28;20446;-79
2022/12/21 06:16:09;;;;;;;80.00;36.37;;;8.00;99.90;;;;;;4997012;28;20511;-79
2022/12/21 06:18:39;;;;;;;154.97;41.93;;;8.00;99.90;;;;;;4996384;28;20492;-78
2022/12/21 06:21:09;;;;;;;81.07;37.93;;;8.00;99.90;;;;;;4996572;28;20495;-78
2022/12/21 06:23:39;;;;;;;88.30;40.30;;;8.00;99.90;;;;;;4996440;28;20983;-78
2022/12/21 06:26:09;;;;;;;167.30;43.03;;;8.00;99.90;;;;;;4996764;28;20476;-79
2022/12/21 06:28:39;;;;;;;168.07;44.43;;;8.00;99.90;;;;;;4996555;28;20945;-79
2022/12/21 06:31:09;;;;;;;95.47;40.67;;;8.00;99.90;;;;;;4996992;28;20510;-78
2022/12/21 06:33:38;;;;;;;89.70;39.77;;;8.00;99.90;;;;;;4997153;28;20973;-78
2022/12/21 06:36:08;;;;;;;83.00;38.60;;;8.00;99.90;;;;;;4997640;28;20504;-77
2022/12/21 06:38:37;;;;;;;94.77;42.20;;;8.00;99.90;;;;;;4996169;28;20454;-78
2022/12/21 06:41:07;;;;;;;112.50;45.70;;;8.00;99.90;;;;;;4997560;28;20957;-78
2022/12/21 06:43:46;;;;;;;111.10;44.73;;;8.00;99.90;;;;;;4995942;28;20465;-78
2022/12/21 06:46:15;;;;;;;114.03;45.07;;;8.00;99.90;;;;;;4997089;28;20463;-79
2022/12/21 06:48:44;;;;;;;108.37;43.80;;;8.00;99.90;;;;;;4994833;28;20454;-78
2022/12/21 06:51:15;;;;;;;116.87;44.90;;;8.00;99.90;;;;;;4995779;28;20454;-78
2022/12/21 06:53:44;;;;;;;97.30;42.73;;;8.00;99.90;;;;;;5000158;28;20452;-78
2022/12/21 06:56:14;;;;;;;95.73;41.10;;;8.10;99.90;;;;;;4996397;28;20527;-77
2022/12/21 06:58:50;;;;;;;100.20;44.00;;;8.10;99.90;;;;;;4997331;28;20497;-78
2022/12/21 07:01:20;;;;;;;91.60;41.13;;;8.00;99.90;;;;;;4998750;28;20424;-78
2022/12/21 07:03:48;;;;;;;93.60;40.20;;;8.00;99.90;;;;;;4995886;28;20482;-78
2022/12/21 07:06:18;;;;;;;90.60;40.63;;;8.10;99.90;;;;;;4997477;28;20472;-78
2022/12/21 07:08:48;;;;;;;98.47;41.67;;;8.10;99.90;;;;;;4996080;28;20487;-78
2022/12/21 07:11:18;;;;;;;113.20;43.57;;;8.10;99.90;;;;;;4995415;28;20554;-78
2022/12/21 07:13:52;;;;;;;103.20;41.17;;;8.10;99.90;;;;;;4997674;28;20530;-78
2022/12/21 07:16:20;;;;;;;97.70;41.50;;;8.00;99.90;;;;;;4995752;28;20482;-78
2022/12/21 07:18:49;;;;;;;97.93;39.07;;;8.10;99.90;;;;;;4995595;28;20543;-78
2022/12/21 07:21:19;;;;;;;99.57;40.40;;;8.00;99.90;;;;;;4995159;28;20543;-78
2022/12/21 07:23:49;;;;;;;95.00;41.10;;;8.00;99.90;;;;;;4995386;28;20468;-79
2022/12/21 07:26:20;;;;;;;99.60;41.90;;;8.00;99.90;;;;;;4994863;28;21027;-77
2022/12/21 07:28:50;;;;;;;93.67;40.47;;;8.00;99.90;;;;;;4994897;28;20456;-78
2022/12/21 07:31:20;;;;;;;81.43;39.03;;;8.00;99.90;;;;;;4996511;28;20451;-79
2022/12/21 07:33:48;;;;;;;109.93;44.33;;;8.00;99.90;;;;;;4995230;28;20449;-77
2022/12/21 07:36:17;;;;;;;96.57;41.13;;;8.00;99.90;;;;;;4994755;28;20520;-78
2022/12/21 07:38:45;;;;;;;89.27;41.43;;;8.00;99.90;;;;;;4994749;28;20900;-78
2022/12/21 07:41:15;;;;;;;95.67;42.30;;;8.00;99.90;;;;;;4994970;28;20820;-79
2022/12/21 07:43:44;;;;;;;100.20;41.37;;;8.00;99.90;;;;;;4994995;28;20799;-78
2022/12/21 07:46:32;;;;;;;98.10;42.37;;;8.00;99.90;;;;;;4997055;28;20950;-78
2022/12/21 07:49:02;;;;;;;105.50;42.60;;;8.00;99.90;;;;;;4995246;28;20448;-79
2022/12/21 07:51:30;;;;;;;122.57;47.60;;;8.00;99.90;;;;;;4995100;28;20485;-78
2022/12/21 07:53:58;;;;;;;113.80;44.47;;;8.00;99.90;;;;;;4996628;28;20451;-78
2022/12/21 07:56:26;;;;;;;102.90;41.60;;;8.00;99.90;;;;;;4996345;28;20816;-78
2022/12/21 07:58:54;;;;;;;116.97;44.53;;;8.00;99.90;;;;;;4994734;28;20443;-78
2022/12/21 08:01:26;;;;;;;100.87;43.67;;;8.00;99.90;;;;;;4994771;28;20449;-78
2022/12/21 08:03:57;;;;;;;112.57;46.73;;;8.00;99.90;;;;;;4996321;28;20476;-78
2022/12/21 08:06:26;;;;;;;128.70;46.40;;;8.00;99.90;;;;;;4994975;28;20471;-78
2022/12/21 08:08:54;;;;;;;107.20;43.60;;;8.00;99.90;;;;;;4995192;28;20449;-79
2022/12/21 08:11:22;;;;;;;123.53;45.00;;;8.00;99.90;;;;;;4994981;28;20487;-79
2022/12/21 08:13:50;;;;;;;146.53;48.87;;;8.00;99.90;;;;;;4996404;28;20451;-78
2022/12/21 08:16:20;;;;;;;113.27;46.87;;;8.00;99.90;;;;;;4994979;28;20472;-79
2022/12/21 08:18:48;;;;;;;166.27;48.40;;;8.00;99.90;;;;;;4994955;28;20515;-78
2022/12/21 08:21:18;;;;;;;99.60;43.27;;;8.00;99.90;;;;;;4994764;28;20452;-79
2022/12/21 08:23:47;;;;;;;164.37;50.47;;;8.00;99.90;;;;;;4994880;28;20483;-78
2022/12/21 08:26:16;;;;;;;178.37;49.37;;;8.00;99.90;;;;;;4998599;28;20481;-78
2022/12/21 08:28:44;;;;;;;179.33;49.47;;;8.00;99.90;;;;;;5002991;28;20464;-78
2022/12/21 08:31:15;;;;;;;103.90;41.43;;;8.00;99.90;;;;;;4998240;28;20444;-78
2022/12/21 08:33:45;;;;;;;124.03;47.13;;;8.00;99.90;;;;;;4996314;28;20427;-79
2022/12/21 08:36:15;;;;;;;126.90;46.27;;;8.00;99.90;;;;;;4996514;28;20469;-78
2022/12/21 08:38:45;;;;;;;112.37;45.10;;;8.00;99.90;;;;;;4994721;28;20490;-79
2022/12/21 08:41:33;;;;;;;121.87;45.97;;;8.00;99.90;;;;;;4995989;28;20474;-78
2022/12/21 08:44:03;;;;;;;108.40;44.60;;;8.00;99.90;;;;;;4998068;28;20466;-79
2022/12/21 08:46:32;;;;;;;139.27;46.40;;;8.00;99.90;;;;;;4998707;28;20443;-78
2022/12/21 08:49:01;;;;;;;106.10;44.47;;;8.00;99.90;;;;;;4998902;28;20881;-78
2022/12/21 08:51:29;;;;;;;99.57;44.40;;;8.00;99.90;;;;;;4998340;28;20474;-79
2022/12/21 08:53:59;;;;;;;113.20;46.17;;;8.00;99.90;;;;;;4997808;28;20514;-78
2022/12/21 08:56:27;;;;;;;94.93;44.90;;;8.00;99.90;;;;;;4999266;28;20929;-79
2022/12/21 08:58:56;;;;;;;130.20;48.03;;;8.00;99.90;;;;;;4997706;28;20460;-78
2022/12/21 09:01:24;;;;;;;113.90;46.80;;;8.00;99.90;;;;;;4998897;28;20448;-78
2022/12/21 09:03:52;;;;;;;105.53;46.57;;;8.10;99.90;;;;;;4997683;28;20457;-79
2022/12/21 09:06:21;;;;;;;108.47;47.23;;;8.00;99.90;;;;;;4999211;28;20479;-78
2022/12/21 09:08:52;;;;;;;118.50;47.53;;;8.10;99.90;;;;;;4997534;28;20499;-78
2022/12/21 09:11:23;;;;;;;130.30;49.80;;;8.10;99.90;;;;;;4998994;28;20444;-78
2022/12/21 09:14:01;;;;;;;107.60;48.17;;;8.10;99.90;;;;;;4999102;28;20446;-80
2022/12/21 09:16:29;;;;;;;99.47;46.43;;;8.10;99.90;;;;;;4998581;28;20433;-78
2022/12/21 09:18:58;;;;;;;100.73;47.77;;;8.10;99.90;;;;;;4996834;28;20579;-78
2022/12/21 09:21:26;;;;;;;113.40;47.80;;;8.20;99.90;;;;;;4997652;28;20458;-79
2022/12/21 09:23:54;;;;;;;109.70;47.13;;;8.20;99.90;;;;;;4997681;28;20502;-78
2022/12/21 09:26:24;;;;;;;117.37;50.20;;;8.20;99.90;;;;;;4998112;28;20479;-78
2022/12/21 09:28:52;;;;;;;107.97;48.20;;;8.20;99.90;;;;;;4998827;28;20447;-78
2022/12/21 09:31:22;;;;;;;127.50;50.63;;;8.20;99.90;;;;;;4998585;28;20444;-78
2022/12/21 09:33:53;;;;;;;120.57;52.00;;;8.20;99.90;;;;;;4997473;28;20447;-78
2022/12/21 09:36:23;;;;;;;119.43;49.53;;;8.30;99.90;;;;;;4998364;28;20463;-79
2022/12/21 09:38:51;;;;;;;117.13;50.60;;;8.30;99.90;;;;;;4997170;28;20591;-78
2022/12/21 09:41:46;;;;;;;109.63;49.00;;;8.30;99.90;;;;;;4998383;28;20494;-79
2022/12/21 09:44:39;;;;;;;131.47;50.30;;;8.30;99.90;;;;;;4996121;28;20516;-78
2022/12/21 09:47:16;;;;;;;106.87;47.03;;;8.30;99.90;;;;;;4990341;28;20454;-78
2022/12/21 09:49:50;;;;;;;126.27;53.00;;;8.30;99.90;;;;;;4998345;28;20861;-78
2022/12/21 09:52:24;;;;;;;122.13;48.77;;;8.30;99.90;;;;;;4996505;28;20468;-79
2022/12/21 09:55:00;;;;;;;109.77;49.90;;;8.30;99.90;;;;;;4996774;28;20479;-78
2022/12/21 09:57:33;;;;;;;110.60;49.13;;;8.30;99.90;;;;;;4996901;28;20437;-78
2022/12/21 10:00:04;;;;;;;116.90;50.87;;;8.40;99.90;;;;;;4997458;28;20969;-78
2022/12/21 10:02:57;;;;;;;109.90;47.80;;;8.40;99.90;;;;;;4996868;28;20441;-77
2022/12/21 10:05:43;;;;;;;119.30;48.67;;;8.40;99.90;;;;;;4997512;28;20477;-78
2022/12/21 10:08:46;;;;;;;121.07;48.40;;;8.40;99.90;;;;;;4994630;28;20508;-79
2022/12/21 10:11:21;;;;;;;110.23;49.00;;;8.40;99.90;;;;;;4997001;28;20444;-79
2022/12/21 10:14:01;;;;;;;98.73;46.67;;;8.50;99.90;;;;;;4996610;28;20444;-79
2022/12/21 10:16:40;;;;;;;92.47;43.07;;;8.50;99.90;;;;;;4997799;28;20432;-79
2022/12/21 10:19:30;;;;;;;96.77;44.40;;;8.50;99.90;;;;;;4997631;28;20433;-79
2022/12/21 10:22:06;;;;;;;91.27;43.10;;;8.50;99.90;;;;;;4996832;28;20491;-78
2022/12/21 10:24:41;;;;;;;93.10;42.57;;;8.50;99.90;;;;;;4996495;28;20498;-78
2022/12/21 10:27:14;;;;;;;89.83;45.10;;;8.50;99.90;;;;;;4996433;28;20474;-79
2022/12/21 10:29:49;;;;;;;85.70;42.03;;;8.60;99.90;;;;;;4997921;28;20443;-79
2022/12/21 10:32:18;;;;;;;92.27;43.67;;;8.60;99.90;;;;;;4997896;28;20497;-79
2022/12/21 10:34:49;;;;;;;95.47;43.93;;;8.60;99.90;;;;;;4996467;28;20475;-78
2022/12/21 10:37:20;;;;;;;99.23;46.27;;;8.60;99.90;;;;;;4998256;28;20862;-78
2022/12/21 10:39:55;;;;;;;86.67;44.67;;;8.60;99.90;;;;;;4999172;28;20493;-78
2022/12/21 10:42:30;;;;;;;91.13;45.47;;;8.70;99.90;;;;;;4996891;28;20445;-78
2022/12/21 10:45:00;;;;;;;82.00;43.73;;;8.70;99.90;;;;;;4996281;28;20567;-78
2022/12/21 10:47:28;;;;;;;96.67;47.83;;;8.70;99.90;;;;;;4997005;28;20464;-78
2022/12/21 10:50:06;;;;;;;90.87;46.73;;;8.70;99.90;;;;;;4996888;28;20610;-79
2022/12/21 10:52:39;;;;;;;90.53;47.37;;;8.70;99.90;;;;;;4995217;28;20448;-78
2022/12/21 10:55:26;;;;;;;90.87;50.03;;;8.70;99.90;;;;;;4997380;28;20932;-78
2022/12/21 10:57:57;;;;;;;92.67;49.67;;;8.70;99.90;;;;;;4994145;28;20536;-78
2022/12/21 11:00:29;;;;;;;83.30;44.37;;;8.70;99.90;;;;;;4997949;28;20899;-81
2022/12/21 11:02:59;;;;;;;82.63;46.00;;;8.70;99.90;;;;;;4996191;28;20448;-81
2022/12/21 11:05:32;;;;;;;75.80;44.50;;;8.70;99.90;;;;;;5000018;28;20471;-80
2022/12/21 11:08:17;;;;;;;87.83;47.00;;;8.80;99.90;;;;;;5008949;28;20444;-79
2022/12/21 11:10:47;;;;;;;82.83;46.10;;;8.70;99.90;;;;;;5008114;28;20453;-78
2022/12/21 11:13:22;;;;;;;86.33;46.87;;;8.70;99.90;;;;;;5008740;28;20459;-80
2022/12/21 11:16:01;;;;;;;82.70;45.20;;;8.70;99.90;;;;;;5010422;28;20472;-81
2022/12/21 11:18:37;;;;;;;77.17;46.27;;;8.70;99.90;;;;;;5010111;28;20448;-78
2022/12/21 11:21:22;;;;;;;73.90;43.20;;;8.70;99.90;;;;;;5009685;28;20440;-78
2022/12/21 11:23:57;;;;;;;77.53;44.40;;;8.70;99.90;;;;;;5007478;28;20445;-80
2022/12/21 11:26:29;;;;;;;80.00;42.80;;;8.80;99.90;;;;;;5009459;28;20468;-80
2022/12/21 11:29:03;;;;;;;80.47;45.53;;;8.80;99.90;;;;;;5009114;28;20447;-80
2022/12/21 11:31:34;;;;;;;81.20;43.87;;;8.80;99.90;;;;;;5007330;28;20432;-80
2022/12/21 11:34:21;;;;;;;71.03;44.10;;;8.80;99.90;;;;;;5009411;28;20445;-79
2022/12/21 11:36:56;;;;;;;72.33;44.07;;;8.80;99.90;;;;;;5011633;28;20459;-79
2022/12/21 11:39:25;;;;;;;73.33;44.27;;;8.80;99.90;;;;;;5011818;28;20433;-79
2022/12/21 11:41:54;;;;;;;72.63;45.17;;;8.80;99.90;;;;;;5014882;28;20456;-79
2022/12/21 11:44:29;;;;;;;72.23;44.03;;;8.80;99.90;;;;;;5017109;28;20480;-79
2022/12/21 11:47:29;;;;;;;72.90;43.83;;;8.80;99.90;;;;;;5017229;28;20475;-79
2022/12/21 11:50:36;;;;;;;79.37;44.13;;;8.80;99.90;;;;;;5011519;28;20453;-78
2022/12/21 11:53:24;;;;;;;70.23;43.70;;;8.90;99.90;;;;;;4995914;28;20457;-80
2022/12/21 11:56:11;;;;;;;69.87;42.50;;;8.90;99.90;;;;;;4993946;28;20564;-80
2022/12/21 11:58:56;;;;;;;68.37;42.60;;;8.90;99.90;;;;;;4993304;28;20509;-79
2022/12/21 12:01:42;;;;;;;69.47;41.17;;;8.90;99.90;;;;;;4993342;28;20461;-80
2022/12/21 12:04:31;;;;;;;65.70;42.20;;;8.90;99.90;;;;;;4992825;28;20480;-79
2022/12/21 12:07:39;;;;;;;64.27;40.90;;;9.00;99.90;;;;;;4993632;28;20458;-80
2022/12/21 12:10:39;;;;;;;70.60;42.10;;;9.00;99.90;;;;;;4934992;29;20458;-78
2022/12/21 12:13:17;;;;;;;61.27;40.87;;;9.00;99.90;;;;;;4987464;28;20476;-77
2022/12/21 12:15:56;;;;;;;63.13;40.30;;;9.00;99.90;;;;;;4992461;28;20508;-80
2022/12/21 12:18:39;;;;;;;59.10;39.10;;;9.00;99.90;;;;;;4980472;28;20434;-80
2022/12/21 12:21:43;;;;;;;65.27;41.33;;;9.00;99.90;;;;;;4979135;28;20448;-80
2022/12/21 12:24:31;;;;;;;61.53;38.77;;;9.00;99.90;;;;;;4967700;28;20548;-80
2022/12/21 12:27:10;;;;;;;64.80;41.17;;;9.00;99.90;;;;;;4980450;28;20469;-81
2022/12/21 12:29:55;;;;;;;60.70;42.30;;;9.00;99.90;;;;;;4978745;28;20499;-78
2022/12/21 12:32:36;;;;;;;62.63;40.90;;;9.00;99.90;;;;;;4979064;28;20453;-79
2022/12/21 12:35:21;;;;;;;60.70;39.90;;;9.00;99.90;;;;;;4980155;28;20559;-79
2022/12/21 12:38:03;;;;;;;65.70;40.50;;;9.00;99.90;;;;;;4984212;28;20464;-80
2022/12/21 12:40:42;;;;;;;63.90;39.77;;;9.00;99.90;;;;;;4998538;28;20453;-81
2022/12/21 12:43:21;;;;;;;61.63;40.47;;;9.00;99.90;;;;;;5000720;28;20456;-81
2022/12/21 12:45:58;;;;;;;55.77;38.77;;;9.00;99.90;;;;;;4999560;28;20463;-80
2022/12/21 12:48:37;;;;;;;58.93;38.87;;;9.00;99.90;;;;;;4998148;28;20464;-79
2022/12/21 12:51:14;;;;;;;58.00;39.80;;;9.10;99.90;;;;;;4998346;28;20459;-80
2022/12/21 12:53:50;;;;;;;57.47;40.63;;;9.00;99.90;;;;;;4999250;28;20424;-79
2022/12/21 12:56:27;;;;;;;55.07;37.83;;;9.00;99.90;;;;;;4998970;28;20456;-80
2022/12/21 12:59:04;;;;;;;56.83;38.53;;;9.00;99.90;;;;;;4999166;28;20460;-80
2022/12/21 13:01:38;;;;;;;54.23;37.60;;;9.00;99.90;;;;;;4999894;28;20519;-80
2022/12/21 13:04:48;;;;;;;57.63;38.60;;;9.00;99.90;;;;;;5001776;28;20450;-80
2022/12/21 13:07:26;;;;;;;59.23;39.00;;;9.00;99.90;;;;;;4997815;28;20469;-79
2022/12/21 13:10:03;;;;;;;58.43;36.70;;;9.00;99.90;;;;;;4999128;28;20762;-80
2022/12/21 13:12:41;;;;;;;55.67;37.97;;;9.00;99.90;;;;;;4997915;28;20808;-79
2022/12/21 13:15:15;;;;;;;57.80;38.60;;;8.90;99.90;;;;;;4999074;28;20463;-80
2022/12/21 13:17:50;;;;;;;55.37;37.03;;;8.90;99.90;;;;;;4998806;28;20425;-80